sensor_id;sensor_type;location;lat;lon;timestamp;P1;durP1;ratioP1;P2;durP2;ratioP2
4674;SDS011;2351;50.812;12.872;2022-10-26T00:01:03;3.23;;;2.80;;
4674;SDS011;2351;50.812;12.872;2022-10-26T00:03:35;7.97;;;3.00;;
4674;SDS011;2351;50.812;12.872;2022-10-26T00:06:09;10.37;;;2.73;;
4674;SDS011;2351;50.812;12.872;2022-10-26T00:08:42;4.07;;;2.60;;
4674;SDS011;2351;50.812;12.872;2022-10-26T00:11:14;2.93;;;2.47;;
4674;SDS011;2351;50.812;12.872;2022-10-26T00:13:46;6.10;;;2.60;;
4674;SDS011;2351;50.812;12.872;2022-10-26T00:16:20;2.93;;;2.73;;
4674;SDS011;2351;50.812;12.872;2022-10-26T00:18:53;6.00;;;3.03;;
4674;SDS011;2351;50.812;12.872;2022-10-26T00:21:25;3.23;;;2.53;;
4674;SDS011;2351;50.812;12.872;2022-10-26T00:23:57;2.43;;;2.07;;
4674;SDS011;2351;50.812;12.872;2022-10-26T00:26:29;2.80;;;2.43;;
4674;SDS011;2351;50.812;12.872;2022-10-26T00:29:00;3.90;;;2.87;;
4674;SDS011;2351;50.812;12.872;2022-10-26T00:31:33;2.93;;;2.57;;
4674;SDS011;2351;50.812;12.872;2022-10-26T00:34:05;2.80;;;2.30;;
4674;SDS011;2351;50.812;12.872;2022-10-26T00:36:36;2.53;;;2.33;;
4674;SDS011;2351;50.812;12.872;2022-10-26T00:39:09;3.67;;;2.50;;
4674;SDS011;2351;50.812;12.872;2022-10-26T00:41:42;3.70;;;2.70;;
4674;SDS011;2351;50.812;12.872;2022-10-26T00:47:24;5.60;;;2.57;;
4674;SDS011;2351;50.812;12.872;2022-10-26T00:50:05;2.13;;;1.97;;
4674;SDS011;2351;50.812;12.872;2022-10-26T00:52:40;2.40;;;2.20;;
4674;SDS011;2351;50.812;12.872;2022-10-26T00:55:12;3.43;;;2.20;;
4674;SDS011;2351;50.812;12.872;2022-10-26T00:57:44;2.83;;;2.10;;
4674;SDS011;2351;50.812;12.872;2022-10-26T01:00:15;3.27;;;2.40;;
4674;SDS011;2351;50.812;12.872;2022-10-26T01:02:49;3.87;;;2.63;;
4674;SDS011;2351;50.812;12.872;2022-10-26T01:05:23;2.30;;;2.00;;
4674;SDS011;2351;50.812;12.872;2022-10-26T01:07:54;4.70;;;2.50;;
4674;SDS011;2351;50.812;12.872;2022-10-26T01:10:26;4.67;;;2.40;;
4674;SDS011;2351;50.812;12.872;2022-10-26T01:12:59;5.93;;;2.40;;
4674;SDS011;2351;50.812;12.872;2022-10-26T01:15:34;4.90;;;2.30;;
4674;SDS011;2351;50.812;12.872;2022-10-26T01:18:18;4.13;;;2.37;;
4674;SDS011;2351;50.812;12.872;2022-10-26T01:20:59;7.37;;;2.73;;
4674;SDS011;2351;50.812;12.872;2022-10-26T01:23:50;2.43;;;2.10;;
4674;SDS011;2351;50.812;12.872;2022-10-26T01:26:41;2.30;;;2.10;;
4674;SDS011;2351;50.812;12.872;2022-10-26T01:29:27;3.03;;;2.47;;
4674;SDS011;2351;50.812;12.872;2022-10-26T01:32:17;2.50;;;2.10;;
4674;SDS011;2351;50.812;12.872;2022-10-26T01:34:58;2.87;;;2.37;;
4674;SDS011;2351;50.812;12.872;2022-10-26T01:37:36;5.00;;;2.80;;
4674;SDS011;2351;50.812;12.872;2022-10-26T01:40:15;4.13;;;2.20;;
4674;SDS011;2351;50.812;12.872;2022-10-26T01:42:52;5.80;;;2.40;;
4674;SDS011;2351;50.812;12.872;2022-10-26T01:45:27;9.83;;;2.60;;
4674;SDS011;2351;50.812;12.872;2022-10-26T01:48:03;2.10;;;1.87;;
4674;SDS011;2351;50.812;12.872;2022-10-26T01:50:35;2.67;;;2.20;;
4674;SDS011;2351;50.812;12.872;2022-10-26T01:53:10;5.50;;;2.40;;
4674;SDS011;2351;50.812;12.872;2022-10-26T01:55:46;2.93;;;2.07;;
4674;SDS011;2351;50.812;12.872;2022-10-26T01:58:39;3.70;;;2.07;;
4674;SDS011;2351;50.812;12.872;2022-10-26T02:01:28;3.50;;;2.90;;
4674;SDS011;2351;50.812;12.872;2022-10-26T02:04:10;3.37;;;2.23;;
4674;SDS011;2351;50.812;12.872;2022-10-26T02:06:57;5.43;;;2.70;;
4674;SDS011;2351;50.812;12.872;2022-10-26T02:09:34;4.33;;;2.10;;
4674;SDS011;2351;50.812;12.872;2022-10-26T02:12:12;5.80;;;2.43;;
4674;SDS011;2351;50.812;12.872;2022-10-26T02:14:52;2.97;;;2.20;;
4674;SDS011;2351;50.812;12.872;2022-10-26T02:17:32;3.90;;;2.40;;
4674;SDS011;2351;50.812;12.872;2022-10-26T02:20:14;5.87;;;2.80;;
4674;SDS011;2351;50.812;12.872;2022-10-26T02:22:50;2.97;;;2.53;;
4674;SDS011;2351;50.812;12.872;2022-10-26T02:25:24;1.90;;;1.80;;
4674;SDS011;2351;50.812;12.872;2022-10-26T02:28:01;6.30;;;2.33;;
4674;SDS011;2351;50.812;12.872;2022-10-26T02:30:37;1.90;;;1.70;;
4674;SDS011;2351;50.812;12.872;2022-10-26T02:33:11;6.40;;;2.20;;
4674;SDS011;2351;50.812;12.872;2022-10-26T02:35:47;4.57;;;2.70;;
4674;SDS011;2351;50.812;12.872;2022-10-26T02:38:21;8.60;;;2.57;;
4674;SDS011;2351;50.812;12.872;2022-10-26T02:40:54;2.70;;;2.13;;
4674;SDS011;2351;50.812;12.872;2022-10-26T02:43:26;3.30;;;2.10;;
4674;SDS011;2351;50.812;12.872;2022-10-26T02:46:03;3.80;;;2.10;;
4674;SDS011;2351;50.812;12.872;2022-10-26T02:48:38;3.03;;;2.20;;
4674;SDS011;2351;50.812;12.872;2022-10-26T02:51:12;3.17;;;1.40;;
4674;SDS011;2351;50.812;12.872;2022-10-26T02:53:48;3.00;;;2.03;;
4674;SDS011;2351;50.812;12.872;2022-10-26T02:56:25;3.47;;;2.07;;
4674;SDS011;2351;50.812;12.872;2022-10-26T02:59:03;4.30;;;2.10;;
4674;SDS011;2351;50.812;12.872;2022-10-26T03:01:36;3.13;;;2.17;;
4674;SDS011;2351;50.812;12.872;2022-10-26T03:04:08;2.87;;;2.10;;
4674;SDS011;2351;50.812;12.872;2022-10-26T03:06:41;2.20;;;2.00;;
4674;SDS011;2351;50.812;12.872;2022-10-26T03:09:21;2.00;;;1.80;;
4674;SDS011;2351;50.812;12.872;2022-10-26T03:11:53;2.53;;;1.70;;
4674;SDS011;2351;50.812;12.872;2022-10-26T03:14:24;3.27;;;1.67;;
4674;SDS011;2351;50.812;12.872;2022-10-26T03:16:56;5.67;;;2.10;;
4674;SDS011;2351;50.812;12.872;2022-10-26T03:19:27;4.20;;;2.63;;
4674;SDS011;2351;50.812;12.872;2022-10-26T03:22:00;3.33;;;1.70;;
4674;SDS011;2351;50.812;12.872;2022-10-26T03:24:32;2.70;;;1.70;;
4674;SDS011;2351;50.812;12.872;2022-10-26T03:27:03;2.50;;;1.90;;
4674;SDS011;2351;50.812;12.872;2022-10-26T03:29:35;2.93;;;1.83;;
4674;SDS011;2351;50.812;12.872;2022-10-26T03:32:06;5.10;;;2.10;;
4674;SDS011;2351;50.812;12.872;2022-10-26T03:34:38;4.77;;;2.20;;
4674;SDS011;2351;50.812;12.872;2022-10-26T03:37:11;2.27;;;1.60;;
4674;SDS011;2351;50.812;12.872;2022-10-26T03:39:42;4.53;;;2.43;;
4674;SDS011;2351;50.812;12.872;2022-10-26T03:42:14;3.30;;;2.00;;
4674;SDS011;2351;50.812;12.872;2022-10-26T03:44:46;1.50;;;1.40;;
4674;SDS011;2351;50.812;12.872;2022-10-26T03:47:17;3.60;;;1.57;;
4674;SDS011;2351;50.812;12.872;2022-10-26T03:49:49;4.90;;;1.60;;
4674;SDS011;2351;50.812;12.872;2022-10-26T03:52:22;6.73;;;3.10;;
4674;SDS011;2351;50.812;12.872;2022-10-26T03:54:54;4.40;;;2.00;;
4674;SDS011;2351;50.812;12.872;2022-10-26T03:57:25;2.50;;;1.90;;
4674;SDS011;2351;50.812;12.872;2022-10-26T03:59:57;2.50;;;1.87;;
4674;SDS011;2351;50.812;12.872;2022-10-26T04:02:28;5.17;;;2.53;;
4674;SDS011;2351;50.812;12.872;2022-10-26T04:05:00;4.47;;;1.97;;
4674;SDS011;2351;50.812;12.872;2022-10-26T04:07:33;1.83;;;1.73;;
4674;SDS011;2351;50.812;12.872;2022-10-26T04:10:04;2.43;;;2.23;;
4674;SDS011;2351;50.812;12.872;2022-10-26T04:12:37;2.37;;;1.93;;
4674;SDS011;2351;50.812;12.872;2022-10-26T04:15:08;2.50;;;1.80;;
4674;SDS011;2351;50.812;12.872;2022-10-26T04:17:40;2.00;;;1.80;;
4674;SDS011;2351;50.812;12.872;2022-10-26T04:20:12;4.23;;;1.87;;
4674;SDS011;2351;50.812;12.872;2022-10-26T04:22:45;2.20;;;1.73;;
4674;SDS011;2351;50.812;12.872;2022-10-26T04:25:17;3.13;;;2.33;;
4674;SDS011;2351;50.812;12.872;2022-10-26T04:27:48;7.23;;;2.00;;
4674;SDS011;2351;50.812;12.872;2022-10-26T04:30:20;2.13;;;1.83;;
4674;SDS011;2351;50.812;12.872;2022-10-26T04:32:51;3.13;;;1.70;;
4674;SDS011;2351;50.812;12.872;2022-10-26T04:35:23;9.50;;;2.50;;
4674;SDS011;2351;50.812;12.872;2022-10-26T04:37:59;2.30;;;2.10;;
4674;SDS011;2351;50.812;12.872;2022-10-26T04:40:32;2.97;;;2.33;;
4674;SDS011;2351;50.812;12.872;2022-10-26T04:43:04;4.40;;;2.90;;
4674;SDS011;2351;50.812;12.872;2022-10-26T04:45:36;6.00;;;2.80;;
4674;SDS011;2351;50.812;12.872;2022-10-26T04:48:08;3.87;;;2.30;;
4674;SDS011;2351;50.812;12.872;2022-10-26T04:50:41;5.30;;;2.97;;
4674;SDS011;2351;50.812;12.872;2022-10-26T04:53:14;9.37;;;3.10;;
4674;SDS011;2351;50.812;12.872;2022-10-26T04:55:46;8.37;;;2.43;;
4674;SDS011;2351;50.812;12.872;2022-10-26T04:58:18;4.80;;;2.37;;
4674;SDS011;2351;50.812;12.872;2022-10-26T05:00:50;4.03;;;2.67;;
4674;SDS011;2351;50.812;12.872;2022-10-26T05:03:21;2.53;;;1.80;;
4674;SDS011;2351;50.812;12.872;2022-10-26T05:05:53;2.80;;;2.20;;
4674;SDS011;2351;50.812;12.872;2022-10-26T05:08:29;4.40;;;2.60;;
4674;SDS011;2351;50.812;12.872;2022-10-26T05:11:00;8.43;;;2.13;;
4674;SDS011;2351;50.812;12.872;2022-10-26T05:13:32;6.53;;;2.70;;
4674;SDS011;2351;50.812;12.872;2022-10-26T05:16:04;7.60;;;2.73;;
4674;SDS011;2351;50.812;12.872;2022-10-26T05:18:36;4.00;;;2.30;;
4674;SDS011;2351;50.812;12.872;2022-10-26T05:21:07;4.10;;;2.50;;
4674;SDS011;2351;50.812;12.872;2022-10-26T05:23:40;4.17;;;2.33;;
4674;SDS011;2351;50.812;12.872;2022-10-26T05:26:12;2.90;;;2.60;;
4674;SDS011;2351;50.812;12.872;2022-10-26T05:28:43;6.03;;;2.63;;
4674;SDS011;2351;50.812;12.872;2022-10-26T05:31:15;8.67;;;3.70;;
4674;SDS011;2351;50.812;12.872;2022-10-26T05:33:47;6.60;;;2.80;;
4674;SDS011;2351;50.812;12.872;2022-10-26T05:36:19;4.03;;;2.43;;
4674;SDS011;2351;50.812;12.872;2022-10-26T05:38:52;3.83;;;2.50;;
4674;SDS011;2351;50.812;12.872;2022-10-26T05:41:27;4.50;;;2.53;;
4674;SDS011;2351;50.812;12.872;2022-10-26T05:43:58;5.17;;;2.80;;
4674;SDS011;2351;50.812;12.872;2022-10-26T05:46:30;3.40;;;2.70;;
4674;SDS011;2351;50.812;12.872;2022-10-26T05:49:01;8.20;;;2.70;;
4674;SDS011;2351;50.812;12.872;2022-10-26T05:51:33;3.80;;;2.37;;
4674;SDS011;2351;50.812;12.872;2022-10-26T05:54:07;5.30;;;2.87;;
4674;SDS011;2351;50.812;12.872;2022-10-26T05:56:39;8.40;;;3.47;;
4674;SDS011;2351;50.812;12.872;2022-10-26T05:59:12;5.20;;;2.93;;
4674;SDS011;2351;50.812;12.872;2022-10-26T06:01:54;9.90;;;2.60;;
4674;SDS011;2351;50.812;12.872;2022-10-26T06:04:37;3.50;;;2.63;;
4674;SDS011;2351;50.812;12.872;2022-10-26T06:07:12;6.07;;;2.67;;
4674;SDS011;2351;50.812;12.872;2022-10-26T06:09:47;5.67;;;4.00;;
4674;SDS011;2351;50.812;12.872;2022-10-26T06:12:20;11.87;;;5.63;;
4674;SDS011;2351;50.812;12.872;2022-10-26T06:14:51;20.77;;;7.50;;
4674;SDS011;2351;50.812;12.872;2022-10-26T06:17:27;13.30;;;6.37;;
4674;SDS011;2351;50.812;12.872;2022-10-26T06:23:14;8.50;;;5.53;;
4674;SDS011;2351;50.812;12.872;2022-10-26T06:26:06;12.97;;;5.67;;
4674;SDS011;2351;50.812;12.872;2022-10-26T06:28:48;9.50;;;4.60;;
4674;SDS011;2351;50.812;12.872;2022-10-26T06:31:26;10.70;;;3.67;;
4674;SDS011;2351;50.812;12.872;2022-10-26T06:33:58;12.40;;;4.43;;
4674;SDS011;2351;50.812;12.872;2022-10-26T06:36:30;10.00;;;4.80;;
4674;SDS011;2351;50.812;12.872;2022-10-26T06:39:05;12.37;;;4.60;;
4674;SDS011;2351;50.812;12.872;2022-10-26T06:41:40;11.27;;;5.00;;
4674;SDS011;2351;50.812;12.872;2022-10-26T06:44:14;11.60;;;5.30;;
4674;SDS011;2351;50.812;12.872;2022-10-26T06:46:53;11.20;;;6.07;;
4674;SDS011;2351;50.812;12.872;2022-10-26T06:49:33;9.70;;;5.77;;
4674;SDS011;2351;50.812;12.872;2022-10-26T06:52:10;12.70;;;5.80;;
4674;SDS011;2351;50.812;12.872;2022-10-26T06:54:46;7.83;;;4.43;;
4674;SDS011;2351;50.812;12.872;2022-10-26T06:57:22;14.60;;;4.73;;
4674;SDS011;2351;50.812;12.872;2022-10-26T06:59:55;11.47;;;5.50;;
4674;SDS011;2351;50.812;12.872;2022-10-26T07:02:30;7.73;;;5.00;;
4674;SDS011;2351;50.812;12.872;2022-10-26T07:05:01;10.93;;;5.43;;
4674;SDS011;2351;50.812;12.872;2022-10-26T07:07:33;12.43;;;6.30;;
4674;SDS011;2351;50.812;12.872;2022-10-26T07:10:10;13.17;;;5.80;;
4674;SDS011;2351;50.812;12.872;2022-10-26T07:12:44;15.00;;;6.53;;
4674;SDS011;2351;50.812;12.872;2022-10-26T07:15:15;7.60;;;5.23;;
4674;SDS011;2351;50.812;12.872;2022-10-26T07:17:47;10.53;;;6.30;;
4674;SDS011;2351;50.812;12.872;2022-10-26T07:20:19;12.30;;;6.30;;
4674;SDS011;2351;50.812;12.872;2022-10-26T07:22:52;10.70;;;5.90;;
4674;SDS011;2351;50.812;12.872;2022-10-26T07:25:24;18.67;;;7.10;;
4674;SDS011;2351;50.812;12.872;2022-10-26T07:27:58;18.90;;;6.77;;
4674;SDS011;2351;50.812;12.872;2022-10-26T07:30:30;28.07;;;7.57;;
4674;SDS011;2351;50.812;12.872;2022-10-26T07:33:04;12.30;;;5.80;;
4674;SDS011;2351;50.812;12.872;2022-10-26T07:35:37;14.13;;;6.20;;
4674;SDS011;2351;50.812;12.872;2022-10-26T07:38:09;15.10;;;6.33;;
4674;SDS011;2351;50.812;12.872;2022-10-26T07:40:43;21.53;;;7.03;;
4674;SDS011;2351;50.812;12.872;2022-10-26T07:43:16;15.23;;;6.30;;
4674;SDS011;2351;50.812;12.872;2022-10-26T07:45:48;11.87;;;5.10;;
4674;SDS011;2351;50.812;12.872;2022-10-26T07:48:20;13.50;;;5.90;;
4674;SDS011;2351;50.812;12.872;2022-10-26T07:50:52;21.70;;;6.30;;
4674;SDS011;2351;50.812;12.872;2022-10-26T07:53:23;7.80;;;5.17;;
4674;SDS011;2351;50.812;12.872;2022-10-26T07:55:55;10.50;;;5.73;;
4674;SDS011;2351;50.812;12.872;2022-10-26T07:58:29;13.87;;;7.30;;
4674;SDS011;2351;50.812;12.872;2022-10-26T08:01:04;16.80;;;7.77;;
4674;SDS011;2351;50.812;12.872;2022-10-26T08:03:36;20.77;;;10.07;;
4674;SDS011;2351;50.812;12.872;2022-10-26T08:06:07;22.50;;;8.17;;
4674;SDS011;2351;50.812;12.872;2022-10-26T08:08:39;24.87;;;9.17;;
4674;SDS011;2351;50.812;12.872;2022-10-26T08:11:11;21.77;;;8.80;;
4674;SDS011;2351;50.812;12.872;2022-10-26T08:13:44;16.50;;;8.53;;
4674;SDS011;2351;50.812;12.872;2022-10-26T08:16:16;17.53;;;7.53;;
4674;SDS011;2351;50.812;12.872;2022-10-26T08:18:47;15.50;;;6.77;;
4674;SDS011;2351;50.812;12.872;2022-10-26T08:21:19;14.87;;;6.90;;
4674;SDS011;2351;50.812;12.872;2022-10-26T08:23:51;16.40;;;6.10;;
4674;SDS011;2351;50.812;12.872;2022-10-26T08:26:22;37.43;;;8.00;;
4674;SDS011;2351;50.812;12.872;2022-10-26T08:28:55;25.03;;;9.53;;
4674;SDS011;2351;50.812;12.872;2022-10-26T08:31:27;19.17;;;7.53;;
4674;SDS011;2351;50.812;12.872;2022-10-26T08:33:58;18.00;;;7.33;;
4674;SDS011;2351;50.812;12.872;2022-10-26T08:36:30;27.80;;;9.07;;
4674;SDS011;2351;50.812;12.872;2022-10-26T08:39:02;13.90;;;7.13;;
4674;SDS011;2351;50.812;12.872;2022-10-26T08:41:35;13.50;;;6.43;;
4674;SDS011;2351;50.812;12.872;2022-10-26T08:44:13;21.03;;;6.20;;
4674;SDS011;2351;50.812;12.872;2022-10-26T08:46:54;16.33;;;6.30;;
4674;SDS011;2351;50.812;12.872;2022-10-26T08:49:31;22.83;;;6.17;;
4674;SDS011;2351;50.812;12.872;2022-10-26T08:52:11;13.90;;;4.80;;
4674;SDS011;2351;50.812;12.872;2022-10-26T08:54:48;15.77;;;4.77;;
4674;SDS011;2351;50.812;12.872;2022-10-26T08:57:24;19.33;;;4.47;;
4674;SDS011;2351;50.812;12.872;2022-10-26T09:00:00;8.60;;;5.03;;
4674;SDS011;2351;50.812;12.872;2022-10-26T09:02:35;10.97;;;5.40;;
4674;SDS011;2351;50.812;12.872;2022-10-26T09:05:11;18.03;;;4.40;;
4674;SDS011;2351;50.812;12.872;2022-10-26T09:07:47;6.23;;;3.10;;
4674;SDS011;2351;50.812;12.872;2022-10-26T09:10:37;4.63;;;2.77;;
4674;SDS011;2351;50.812;12.872;2022-10-26T09:13:13;5.43;;;2.07;;
4674;SDS011;2351;50.812;12.872;2022-10-26T09:15:56;1.27;;;1.17;;
4674;SDS011;2351;50.812;12.872;2022-10-26T09:18:35;4.47;;;1.10;;
4674;SDS011;2351;50.812;12.872;2022-10-26T09:21:21;1.53;;;0.70;;
4674;SDS011;2351;50.812;12.872;2022-10-26T09:24:05;5.43;;;1.23;;
4674;SDS011;2351;50.812;12.872;2022-10-26T09:26:49;8.43;;;1.07;;
4674;SDS011;2351;50.812;12.872;2022-10-26T09:29:25;1.50;;;1.10;;
4674;SDS011;2351;50.812;12.872;2022-10-26T09:32:00;1.03;;;0.93;;
4674;SDS011;2351;50.812;12.872;2022-10-26T09:34:36;1.30;;;0.80;;
4674;SDS011;2351;50.812;12.872;2022-10-26T09:37:12;2.70;;;1.13;;
4674;SDS011;2351;50.812;12.872;2022-10-26T09:39:51;0.80;;;0.80;;
4674;SDS011;2351;50.812;12.872;2022-10-26T09:42:30;0.63;;;0.63;;
4674;SDS011;2351;50.812;12.872;2022-10-26T09:45:10;3.13;;;0.80;;
4674;SDS011;2351;50.812;12.872;2022-10-26T09:47:50;1.03;;;0.83;;
4674;SDS011;2351;50.812;12.872;2022-10-26T09:50:25;0.60;;;0.43;;
4674;SDS011;2351;50.812;12.872;2022-10-26T09:52:59;2.10;;;0.90;;
4674;SDS011;2351;50.812;12.872;2022-10-26T09:55:30;1.40;;;1.17;;
4674;SDS011;2351;50.812;12.872;2022-10-26T09:58:05;0.93;;;0.80;;
4674;SDS011;2351;50.812;12.872;2022-10-26T10:00:44;2.33;;;0.60;;
4674;SDS011;2351;50.812;12.872;2022-10-26T10:03:18;2.50;;;0.90;;
4674;SDS011;2351;50.812;12.872;2022-10-26T10:05:51;1.07;;;0.50;;
4674;SDS011;2351;50.812;12.872;2022-10-26T10:08:23;3.60;;;0.90;;
4674;SDS011;2351;50.812;12.872;2022-10-26T10:10:57;4.40;;;0.73;;
4674;SDS011;2351;50.812;12.872;2022-10-26T10:13:38;1.47;;;0.90;;
4674;SDS011;2351;50.812;12.872;2022-10-26T10:16:12;1.20;;;1.00;;
4674;SDS011;2351;50.812;12.872;2022-10-26T10:18:53;3.40;;;0.63;;
4674;SDS011;2351;50.812;12.872;2022-10-26T10:21:32;2.30;;;0.90;;
4674;SDS011;2351;50.812;12.872;2022-10-26T10:24:19;7.30;;;0.80;;
4674;SDS011;2351;50.812;12.872;2022-10-26T10:26:57;3.50;;;0.80;;
4674;SDS011;2351;50.812;12.872;2022-10-26T10:29:31;2.03;;;0.90;;
4674;SDS011;2351;50.812;12.872;2022-10-26T10:32:04;4.77;;;1.10;;
4674;SDS011;2351;50.812;12.872;2022-10-26T10:34:38;2.97;;;0.87;;
4674;SDS011;2351;50.812;12.872;2022-10-26T10:37:12;5.13;;;1.00;;
4674;SDS011;2351;50.812;12.872;2022-10-26T10:39:55;1.43;;;1.03;;
4674;SDS011;2351;50.812;12.872;2022-10-26T10:42:29;0.70;;;0.60;;
4674;SDS011;2351;50.812;12.872;2022-10-26T10:45:03;1.10;;;1.00;;
4674;SDS011;2351;50.812;12.872;2022-10-26T10:47:36;4.20;;;0.70;;
4674;SDS011;2351;50.812;12.872;2022-10-26T10:50:16;2.00;;;0.60;;
4674;SDS011;2351;50.812;12.872;2022-10-26T10:52:50;1.67;;;0.90;;
4674;SDS011;2351;50.812;12.872;2022-10-26T10:55:22;4.13;;;0.50;;
4674;SDS011;2351;50.812;12.872;2022-10-26T10:58:01;1.53;;;0.70;;
4674;SDS011;2351;50.812;12.872;2022-10-26T11:00:43;0.83;;;0.60;;
4674;SDS011;2351;50.812;12.872;2022-10-26T11:03:31;4.10;;;0.80;;
4674;SDS011;2351;50.812;12.872;2022-10-26T11:06:11;1.27;;;0.83;;
4674;SDS011;2351;50.812;12.872;2022-10-26T11:08:47;2.77;;;0.80;;
4674;SDS011;2351;50.812;12.872;2022-10-26T11:11:24;6.33;;;0.80;;
4674;SDS011;2351;50.812;12.872;2022-10-26T11:14:02;1.87;;;1.03;;
4674;SDS011;2351;50.812;12.872;2022-10-26T11:16:41;1.57;;;0.80;;
4674;SDS011;2351;50.812;12.872;2022-10-26T11:19:17;1.83;;;0.87;;
4674;SDS011;2351;50.812;12.872;2022-10-26T11:21:53;1.57;;;1.23;;
4674;SDS011;2351;50.812;12.872;2022-10-26T11:24:27;1.97;;;1.30;;
4674;SDS011;2351;50.812;12.872;2022-10-26T11:27:04;2.80;;;0.97;;
4674;SDS011;2351;50.812;12.872;2022-10-26T11:29:45;1.27;;;1.00;;
4674;SDS011;2351;50.812;12.872;2022-10-26T11:32:24;0.60;;;0.60;;
4674;SDS011;2351;50.812;12.872;2022-10-26T11:35:02;0.97;;;0.80;;
4674;SDS011;2351;50.812;12.872;2022-10-26T11:37:43;0.97;;;0.83;;
4674;SDS011;2351;50.812;12.872;2022-10-26T11:40:24;7.40;;;1.60;;
4674;SDS011;2351;50.812;12.872;2022-10-26T11:43:02;1.23;;;0.63;;
4674;SDS011;2351;50.812;12.872;2022-10-26T11:45:40;1.17;;;0.70;;
4674;SDS011;2351;50.812;12.872;2022-10-26T11:48:15;1.03;;;0.90;;
4674;SDS011;2351;50.812;12.872;2022-10-26T11:50:52;1.73;;;0.67;;
4674;SDS011;2351;50.812;12.872;2022-10-26T11:53:29;1.20;;;0.90;;
4674;SDS011;2351;50.812;12.872;2022-10-26T11:56:08;0.70;;;0.70;;
4674;SDS011;2351;50.812;12.872;2022-10-26T11:58:42;4.40;;;0.80;;
4674;SDS011;2351;50.812;12.872;2022-10-26T12:01:16;1.10;;;0.93;;
4674;SDS011;2351;50.812;12.872;2022-10-26T12:03:49;0.93;;;0.70;;
4674;SDS011;2351;50.812;12.872;2022-10-26T12:06:24;3.77;;;0.70;;
4674;SDS011;2351;50.812;12.872;2022-10-26T12:09:09;1.57;;;0.67;;
4674;SDS011;2351;50.812;12.872;2022-10-26T12:11:47;1.43;;;0.80;;
4674;SDS011;2351;50.812;12.872;2022-10-26T12:14:23;2.30;;;1.37;;
4674;SDS011;2351;50.812;12.872;2022-10-26T12:17:01;1.67;;;1.50;;
4674;SDS011;2351;50.812;12.872;2022-10-26T12:19:38;4.73;;;1.97;;
4674;SDS011;2351;50.812;12.872;2022-10-26T12:22:17;3.13;;;1.90;;
4674;SDS011;2351;50.812;12.872;2022-10-26T12:25:05;6.53;;;2.63;;
4674;SDS011;2351;50.812;12.872;2022-10-26T12:27:49;3.03;;;2.40;;
4674;SDS011;2351;50.812;12.872;2022-10-26T12:30:24;5.70;;;2.97;;
4674;SDS011;2351;50.812;12.872;2022-10-26T12:32:58;6.70;;;2.20;;
4674;SDS011;2351;50.812;12.872;2022-10-26T12:35:40;6.93;;;1.80;;
4674;SDS011;2351;50.812;12.872;2022-10-26T12:41:24;3.33;;;1.10;;
4674;SDS011;2351;50.812;12.872;2022-10-26T12:43:57;1.23;;;0.60;;
4674;SDS011;2351;50.812;12.872;2022-10-26T12:46:37;0.90;;;0.80;;
4674;SDS011;2351;50.812;12.872;2022-10-26T12:52:29;0.70;;;0.63;;
4674;SDS011;2351;50.812;12.872;2022-10-26T12:55:25;2.00;;;0.70;;
4674;SDS011;2351;50.812;12.872;2022-10-26T13:01:40;5.83;;;0.90;;
4674;SDS011;2351;50.812;12.872;2022-10-26T13:07:33;1.53;;;0.80;;
4674;SDS011;2351;50.812;12.872;2022-10-26T13:10:16;0.70;;;0.70;;
4674;SDS011;2351;50.812;12.872;2022-10-26T13:12:51;0.60;;;0.60;;
4674;SDS011;2351;50.812;12.872;2022-10-26T13:15:27;1.10;;;0.90;;
4674;SDS011;2351;50.812;12.872;2022-10-26T13:18:00;1.83;;;0.80;;
4674;SDS011;2351;50.812;12.872;2022-10-26T13:20:50;2.10;;;1.30;;
4674;SDS011;2351;50.812;12.872;2022-10-26T13:23:24;1.20;;;1.10;;
4674;SDS011;2351;50.812;12.872;2022-10-26T13:26:05;0.93;;;0.70;;
4674;SDS011;2351;50.812;12.872;2022-10-26T13:28:42;1.43;;;1.27;;
4674;SDS011;2351;50.812;12.872;2022-10-26T13:34:29;1.20;;;0.97;;
4674;SDS011;2351;50.812;12.872;2022-10-26T13:37:06;4.10;;;1.13;;
4674;SDS011;2351;50.812;12.872;2022-10-26T13:39:48;8.13;;;1.10;;
4674;SDS011;2351;50.812;12.872;2022-10-26T13:42:25;1.70;;;1.30;;
4674;SDS011;2351;50.812;12.872;2022-10-26T13:45:01;2.10;;;1.10;;
4674;SDS011;2351;50.812;12.872;2022-10-26T13:47:40;2.30;;;1.20;;
4674;SDS011;2351;50.812;12.872;2022-10-26T13:50:15;1.50;;;1.40;;
4674;SDS011;2351;50.812;12.872;2022-10-26T13:52:50;1.80;;;1.10;;
4674;SDS011;2351;50.812;12.872;2022-10-26T13:55:25;7.40;;;1.53;;
4674;SDS011;2351;50.812;12.872;2022-10-26T13:58:13;6.70;;;1.20;;
4674;SDS011;2351;50.812;12.872;2022-10-26T14:01:00;2.87;;;1.30;;
4674;SDS011;2351;50.812;12.872;2022-10-26T14:03:34;4.27;;;1.53;;
4674;SDS011;2351;50.812;12.872;2022-10-26T14:06:05;3.90;;;1.20;;
4674;SDS011;2351;50.812;12.872;2022-10-26T14:08:45;1.33;;;0.97;;
4674;SDS011;2351;50.812;12.872;2022-10-26T14:11:19;3.40;;;1.30;;
4674;SDS011;2351;50.812;12.872;2022-10-26T14:13:53;2.80;;;1.03;;
4674;SDS011;2351;50.812;12.872;2022-10-26T14:16:25;1.13;;;1.03;;
4674;SDS011;2351;50.812;12.872;2022-10-26T14:19:00;5.40;;;0.83;;
4674;SDS011;2351;50.812;12.872;2022-10-26T14:21:33;1.20;;;0.80;;
4674;SDS011;2351;50.812;12.872;2022-10-26T14:24:17;0.70;;;0.70;;
4674;SDS011;2351;50.812;12.872;2022-10-26T14:26:51;0.80;;;0.80;;
4674;SDS011;2351;50.812;12.872;2022-10-26T14:29:24;2.80;;;1.30;;
4674;SDS011;2351;50.812;12.872;2022-10-26T14:31:58;2.80;;;1.10;;
4674;SDS011;2351;50.812;12.872;2022-10-26T14:34:31;2.13;;;1.30;;
4674;SDS011;2351;50.812;12.872;2022-10-26T14:37:02;1.40;;;1.30;;
4674;SDS011;2351;50.812;12.872;2022-10-26T14:39:36;1.43;;;1.33;;
4674;SDS011;2351;50.812;12.872;2022-10-26T14:42:14;2.17;;;1.40;;
4674;SDS011;2351;50.812;12.872;2022-10-26T14:44:52;2.20;;;0.87;;
4674;SDS011;2351;50.812;12.872;2022-10-26T14:47:24;2.87;;;1.10;;
4674;SDS011;2351;50.812;12.872;2022-10-26T14:49:59;2.40;;;1.17;;
4674;SDS011;2351;50.812;12.872;2022-10-26T14:52:32;6.73;;;1.10;;
4674;SDS011;2351;50.812;12.872;2022-10-26T14:55:10;4.50;;;1.50;;
4674;SDS011;2351;50.812;12.872;2022-10-26T14:57:44;2.43;;;1.47;;
4674;SDS011;2351;50.812;12.872;2022-10-26T15:00:17;1.67;;;1.10;;
4674;SDS011;2351;50.812;12.872;2022-10-26T15:02:51;3.43;;;1.70;;
4674;SDS011;2351;50.812;12.872;2022-10-26T15:05:26;1.33;;;1.20;;
4674;SDS011;2351;50.812;12.872;2022-10-26T15:08:01;1.73;;;1.10;;
4674;SDS011;2351;50.812;12.872;2022-10-26T15:10:45;2.03;;;1.50;;
4674;SDS011;2351;50.812;12.872;2022-10-26T15:13:19;1.80;;;1.50;;
4674;SDS011;2351;50.812;12.872;2022-10-26T15:15:54;1.77;;;1.63;;
4674;SDS011;2351;50.812;12.872;2022-10-26T15:18:30;3.77;;;1.70;;
4674;SDS011;2351;50.812;12.872;2022-10-26T15:21:20;3.50;;;2.57;;
4674;SDS011;2351;50.812;12.872;2022-10-26T15:23:53;3.73;;;2.43;;
4674;SDS011;2351;50.812;12.872;2022-10-26T15:26:27;5.80;;;2.10;;
4674;SDS011;2351;50.812;12.872;2022-10-26T15:28:59;4.07;;;2.13;;
4674;SDS011;2351;50.812;12.872;2022-10-26T15:31:31;3.40;;;1.67;;
4674;SDS011;2351;50.812;12.872;2022-10-26T15:34:11;4.77;;;2.20;;
4674;SDS011;2351;50.812;12.872;2022-10-26T15:36:45;5.07;;;2.50;;
4674;SDS011;2351;50.812;12.872;2022-10-26T15:39:17;10.60;;;1.93;;
4674;SDS011;2351;50.812;12.872;2022-10-26T15:41:48;5.70;;;2.40;;
4674;SDS011;2351;50.812;12.872;2022-10-26T15:44:21;6.50;;;2.13;;
4674;SDS011;2351;50.812;12.872;2022-10-26T15:46:53;5.60;;;2.13;;
4674;SDS011;2351;50.812;12.872;2022-10-26T15:49:31;4.20;;;2.33;;
4674;SDS011;2351;50.812;12.872;2022-10-26T15:52:07;12.00;;;2.57;;
4674;SDS011;2351;50.812;12.872;2022-10-26T15:54:39;5.93;;;3.33;;
4674;SDS011;2351;50.812;12.872;2022-10-26T15:57:11;7.70;;;3.13;;
4674;SDS011;2351;50.812;12.872;2022-10-26T15:59:44;5.23;;;2.57;;
4674;SDS011;2351;50.812;12.872;2022-10-26T16:02:15;7.27;;;3.83;;
4674;SDS011;2351;50.812;12.872;2022-10-26T16:04:47;5.63;;;2.67;;
4674;SDS011;2351;50.812;12.872;2022-10-26T16:07:20;6.07;;;2.80;;
4674;SDS011;2351;50.812;12.872;2022-10-26T16:09:55;14.87;;;2.27;;